Eems Servant — PBTI — position and weather

sailwx.info

Track history (hours):
 
Tides and Currents Weather Stations Pressure Air Temp Water Temp Dewpoint Dewpoint Depression Visibility Wind Speed Wind Dir Waves Ship Positions

Eems Servant

Last reported at 2014-Aug-22 23:33 UTC. Time now 2014-Aug-23 15:26 UTC.
Position N 56°19' E 012°06'.

Length 87 m; draft 4.1 m.

Type: Cargo ship. MMSI: 246236000.

Date/timePositionNaut miles runAvg speedWind from/ knotsBaromVisibWave heightAir tempDewpointWater temp
2014-Aug-22 23:33N 56°19' E 012°06'8 8.3
2014-Aug-22 22:33N 56°14' E 012°17'9 9.1
2014-Aug-22 21:33N 56°08' E 012°30'1010.1
2014-Aug-22 20:33N 55°60' E 012°41'10 9.6
2014-Aug-22 19:33N 55°51' E 012°45'1010.1
2014-Aug-22 18:33N 55°42' E 012°54'9 8.9
2014-Aug-22 17:33N 55°34' E 012°48'10 9.9
2014-Aug-22 16:33N 55°24' E 012°42'8 8.0
2014-Aug-22 15:33N 55°17' E 012°49'8 8.4
2014-Aug-22 14:33N 55°12' E 013°00'22 9.4
2014-Aug-22 12:10N 54°55' E 013°25'610.0
2014-Aug-22 11:33N 54°50' E 013°30'43 9.9
2014-Aug-22 07:15N 54°14' E 014°12'7 9.9
2014-Aug-22 06:33N 54°08' E 014°14'1010.0
2014-Aug-22 05:33N 53°58' E 014°16'7 7.4
2014-Aug-22 04:33N 53°50' E 014°18'9 9.0
2014-Aug-22 03:33N 53°43' E 014°27'9 9.2
2014-Aug-22 02:33N 53°35' E 014°36'7 7.3
2014-Aug-22 01:33N 53°28' E 014°36'4 3.7
2014-Aug-22 00:33N 53°24' E 014°37'0 0.0
2014-Aug-21 23:29N 53°24' E 014°37'0 0.0
2014-Aug-21 22:29N 53°24' E 014°37'0 0.0
2014-Aug-21 21:32N 53°24' E 014°37'0 0.0
2014-Aug-21 19:17N 53°24' E 014°37'0 0.0
2014-Aug-21 18:32N 53°24' E 014°37'0 0.0
2014-Aug-21 17:32N 53°24' E 014°37'0 0.0
2014-Aug-21 16:29N 53°24' E 014°37'0 0.0
2014-Aug-21 15:32N 53°24' E 014°37'0 0.0
2014-Aug-21 14:17N 53°24' E 014°37'0 0.0
2014-Aug-21 13:23N 53°24' E 014°37'0 0.0
2014-Aug-21 12:11N 53°24' E 014°37'0 0.0
2014-Aug-21 11:32N 53°24' E 014°37'0 0.0
2014-Aug-21 10:32N 53°24' E 014°37'0 0.0
2014-Aug-21 09:32N 53°24' E 014°37'1 0.5
2014-Aug-21 08:33N 53°25' E 014°36'0 0.0
2014-Aug-21 07:33N 53°25' E 014°36'0 0.0
2014-Aug-21 06:33N 53°25' E 014°36'0 0.0
2014-Aug-21 05:30N 53°25' E 014°36'0 0.0
2014-Aug-21 04:33N 53°25' E 014°36'0 0.0
2014-Aug-21 03:30N 53°25' E 014°36'0 0.0
2014-Aug-21 02:33N 53°25' E 014°36'0 0.0
2014-Aug-21 01:33N 53°25' E 014°36'0 0.0
2014-Aug-21 00:33N 53°25' E 014°36'0 0.0
2014-Aug-20 23:33N 53°25' E 014°36'0 0.0
2014-Aug-20 22:33N 53°25' E 014°36'0 0.0
2014-Aug-20 21:33N 53°25' E 014°36'0 0.0
2014-Aug-20 20:33N 53°25' E 014°36'0 0.0
2014-Aug-20 19:33N 53°25' E 014°36'0 0.0
2014-Aug-20 18:33N 53°25' E 014°36'0 0.0
2014-Aug-20 17:33N 53°25' E 014°36'0 0.0
2014-Aug-20 16:33N 53°25' E 014°36'0 0.0
2014-Aug-20 15:33N 53°25' E 014°36'0 0.0
2014-Aug-20 14:33N 53°25' E 014°36'5 5.4
2014-Aug-20 13:34N 53°30' E 014°38'9 8.8
2014-Aug-20 12:33N 53°39' E 014°34'9 9.4
2014-Aug-20 11:33N 53°46' E 014°24'8 8.0
2014-Aug-20 10:34N 53°53' E 014°16'6 6.5
2014-Aug-20 09:34N 53°59' E 014°15'10 9.5
2014-Aug-20 08:33N 54°08' E 014°12'9 8.7
2014-Aug-20 07:33N 54°16' E 014°06'9 9.4
2014-Aug-20 06:33N 54°23' E 013°54'10 9.9
2014-Aug-20 05:33N 54°31' E 013°46'10 9.9
2014-Aug-20 04:33N 54°40' E 013°38'9 9.2
2014-Aug-20 03:33N 54°48' E 013°30'26 8.8
2014-Aug-20 00:32N 55°09' E 013°02'9 9.5
2014-Aug-19 23:34N 55°15' E 012°50'8 8.3
2014-Aug-19 22:33N 55°21' E 012°39'9 9.3
2014-Aug-19 21:33N 55°30' E 012°43'1110.6
2014-Aug-19 20:33N 55°38' E 012°55'10 9.5
2014-Aug-19 19:33N 55°47' E 012°49'1010.0
2014-Aug-19 18:33N 55°56' E 012°43'1110.9
2014-Aug-19 17:34N 56°06' E 012°34'1010.2
2014-Aug-19 16:33N 56°12' E 012°19'9 9.3
2014-Aug-19 15:33N 56°17' E 012°05'9 8.7
2014-Aug-19 14:33N 56°25' E 012°00'42 8.0
2014-Aug-19 09:18N 57°06' E 011°38'6 7.9
2014-Aug-19 08:33N 57°11' E 011°34'9 9.1
2014-Aug-19 07:33N 57°20' E 011°28'9 9.4
2014-Aug-19 06:33N 57°28' E 011°21'1010.2
2014-Aug-19 05:33N 57°33' E 011°05'10 9.6
2014-Aug-19 04:34N 57°38' E 010°49'8 8.0
2014-Aug-19 03:33N 57°42' E 010°36'0 0.0
2014-Aug-19 02:33N 57°42' E 010°36'0 0.0
2014-Aug-19 01:33N 57°42' E 010°36'5 5.1
2014-Aug-19 00:33N 57°45' E 010°45'9 8.8
2014-Aug-18 23:33N 57°53' E 010°40'  
Track history (hours):
 
Tides and Currents Weather Stations Pressure Air Temp Water Temp Dewpoint Dewpoint Depression Visibility Wind Speed Wind Dir Waves Ship Positions

Eems Servant

Last reported at 2014-Aug-22 23:33 UTC. Time now 2014-Aug-23 15:26 UTC.
Position N 56°19' E 012°06'.

Length 87 m; draft 4.1 m.

Type: Cargo ship. MMSI: 246236000.

Date/timePositionNaut miles runAvg speedWind from/ knotsBaromVisibWave heightAir tempDewpointWater temp
2014-Aug-22 23:33N 56°19' E 012°06'8 8.3
2014-Aug-22 22:33N 56°14' E 012°17'9 9.1
2014-Aug-22 21:33N 56°08' E 012°30'1010.1
2014-Aug-22 20:33N 55°60' E 012°41'10 9.6
2014-Aug-22 19:33N 55°51' E 012°45'1010.1
2014-Aug-22 18:33N 55°42' E 012°54'9 8.9
2014-Aug-22 17:33N 55°34' E 012°48'10 9.9
2014-Aug-22 16:33N 55°24' E 012°42'8 8.0
2014-Aug-22 15:33N 55°17' E 012°49'8 8.4
2014-Aug-22 14:33N 55°12' E 013°00'22 9.4
2014-Aug-22 12:10N 54°55' E 013°25'610.0
2014-Aug-22 11:33N 54°50' E 013°30'43 9.9
2014-Aug-22 07:15N 54°14' E 014°12'7 9.9
2014-Aug-22 06:33N 54°08' E 014°14'1010.0
2014-Aug-22 05:33N 53°58' E 014°16'7 7.4
2014-Aug-22 04:33N 53°50' E 014°18'9 9.0
2014-Aug-22 03:33N 53°43' E 014°27'9 9.2
2014-Aug-22 02:33N 53°35' E 014°36'7 7.3
2014-Aug-22 01:33N 53°28' E 014°36'4 3.7
2014-Aug-22 00:33N 53°24' E 014°37'0 0.0
2014-Aug-21 23:29N 53°24' E 014°37'0 0.0
2014-Aug-21 22:29N 53°24' E 014°37'0 0.0
2014-Aug-21 21:32N 53°24' E 014°37'0 0.0
2014-Aug-21 19:17N 53°24' E 014°37'0 0.0
2014-Aug-21 18:32N 53°24' E 014°37'0 0.0
2014-Aug-21 17:32N 53°24' E 014°37'0 0.0
2014-Aug-21 16:29N 53°24' E 014°37'0 0.0
2014-Aug-21 15:32N 53°24' E 014°37'0 0.0
2014-Aug-21 14:17N 53°24' E 014°37'0 0.0
2014-Aug-21 13:23N 53°24' E 014°37'0 0.0
2014-Aug-21 12:11N 53°24' E 014°37'0 0.0
2014-Aug-21 11:32N 53°24' E 014°37'0 0.0
2014-Aug-21 10:32N 53°24' E 014°37'0 0.0
2014-Aug-21 09:32N 53°24' E 014°37'1 0.5
2014-Aug-21 08:33N 53°25' E 014°36'0 0.0
2014-Aug-21 07:33N 53°25' E 014°36'0 0.0
2014-Aug-21 06:33N 53°25' E 014°36'0 0.0
2014-Aug-21 05:30N 53°25' E 014°36'0 0.0
2014-Aug-21 04:33N 53°25' E 014°36'0 0.0
2014-Aug-21 03:30N 53°25' E 014°36'0 0.0
2014-Aug-21 02:33N 53°25' E 014°36'0 0.0
2014-Aug-21 01:33N 53°25' E 014°36'0 0.0
2014-Aug-21 00:33N 53°25' E 014°36'0 0.0
2014-Aug-20 23:33N 53°25' E 014°36'0 0.0
2014-Aug-20 22:33N 53°25' E 014°36'0 0.0
2014-Aug-20 21:33N 53°25' E 014°36'0 0.0
2014-Aug-20 20:33N 53°25' E 014°36'0 0.0
2014-Aug-20 19:33N 53°25' E 014°36'0 0.0
2014-Aug-20 18:33N 53°25' E 014°36'0 0.0
2014-Aug-20 17:33N 53°25' E 014°36'0 0.0
2014-Aug-20 16:33N 53°25' E 014°36'0 0.0
2014-Aug-20 15:33N 53°25' E 014°36'0 0.0
2014-Aug-20 14:33N 53°25' E 014°36'5 5.4
2014-Aug-20 13:34N 53°30' E 014°38'9 8.8
2014-Aug-20 12:33N 53°39' E 014°34'9 9.4
2014-Aug-20 11:33N 53°46' E 014°24'8 8.0
2014-Aug-20 10:34N 53°53' E 014°16'6 6.5
2014-Aug-20 09:34N 53°59' E 014°15'10 9.5
2014-Aug-20 08:33N 54°08' E 014°12'9 8.7
2014-Aug-20 07:33N 54°16' E 014°06'9 9.4
2014-Aug-20 06:33N 54°23' E 013°54'10 9.9
2014-Aug-20 05:33N 54°31' E 013°46'10 9.9
2014-Aug-20 04:33N 54°40' E 013°38'9 9.2
2014-Aug-20 03:33N 54°48' E 013°30'26 8.8
2014-Aug-20 00:32N 55°09' E 013°02'9 9.5
2014-Aug-19 23:34N 55°15' E 012°50'8 8.3
2014-Aug-19 22:33N 55°21' E 012°39'9 9.3
2014-Aug-19 21:33N 55°30' E 012°43'1110.6
2014-Aug-19 20:33N 55°38' E 012°55'10 9.5
2014-Aug-19 19:33N 55°47' E 012°49'1010.0
2014-Aug-19 18:33N 55°56' E 012°43'1110.9
2014-Aug-19 17:34N 56°06' E 012°34'1010.2
2014-Aug-19 16:33N 56°12' E 012°19'9 9.3
2014-Aug-19 15:33N 56°17' E 012°05'9 8.7
2014-Aug-19 14:33N 56°25' E 012°00'42 8.0
2014-Aug-19 09:18N 57°06' E 011°38'6 7.9
2014-Aug-19 08:33N 57°11' E 011°34'9 9.1
2014-Aug-19 07:33N 57°20' E 011°28'9 9.4
2014-Aug-19 06:33N 57°28' E 011°21'1010.2
2014-Aug-19 05:33N 57°33' E 011°05'10 9.6
2014-Aug-19 04:34N 57°38' E 010°49'8 8.0
2014-Aug-19 03:33N 57°42' E 010°36'0 0.0
2014-Aug-19 02:33N 57°42' E 010°36'0 0.0
2014-Aug-19 01:33N 57°42' E 010°36'5 5.1
2014-Aug-19 00:33N 57°45' E 010°45'9 8.8
2014-Aug-18 23:33N 57°53' E 010°40'  

Dump ship's entire track history